createdAt,value
2023-05-03T00:02:05.365Z,13.48
2023-05-03T00:04:32.268Z,17.95
2023-05-03T00:06:59.127Z,11.23
2023-05-03T00:09:26.092Z,9.90
2023-05-03T00:11:53.653Z,14.93
2023-05-03T00:14:20.709Z,12.05
2023-05-03T00:16:47.633Z,11.30
2023-05-03T00:19:24.357Z,13.10
2023-05-03T00:21:57.906Z,10.00
2023-05-03T00:24:24.801Z,10.88
2023-05-03T00:26:51.691Z,10.77
2023-05-03T00:29:21.243Z,11.45
2023-05-03T00:31:48.123Z,9.20
2023-05-03T00:34:15.059Z,12.82
2023-05-03T00:36:42.091Z,9.85
2023-05-03T00:39:09.874Z,12.05
2023-05-03T00:41:36.943Z,11.43
2023-05-03T00:44:03.926Z,8.43
2023-05-03T00:46:30.861Z,9.32
2023-05-03T00:48:57.830Z,8.25
2023-05-03T00:51:24.735Z,8.88
2023-05-03T00:53:51.819Z,12.40
2023-05-03T00:56:21.076Z,9.38
2023-05-03T00:58:47.983Z,8.70
2023-05-03T01:01:15.541Z,10.55
2023-05-03T01:03:43.178Z,11.00
2023-05-03T01:06:38.199Z,9.75
2023-05-03T01:09:17.571Z,9.25
2023-05-03T01:11:55.291Z,10.10
2023-05-03T01:14:43.890Z,9.77
2023-05-03T01:17:14.582Z,11.43
2023-05-03T01:19:45.983Z,10.30
2023-05-03T01:22:30.829Z,10.23
2023-05-03T01:25:08.016Z,10.25
2023-05-03T01:27:35.359Z,9.63
2023-05-03T01:30:09.491Z,10.93
2023-05-03T01:32:51.467Z,9.93
2023-05-03T01:35:27.669Z,10.32
2023-05-03T01:37:56.062Z,10.15
2023-05-03T01:40:23.255Z,12.15
2023-05-03T01:42:50.939Z,8.70
2023-05-03T01:45:18.035Z,11.35
2023-05-03T01:47:44.998Z,13.25
2023-05-03T01:50:12.025Z,14.18
2023-05-03T01:52:38.936Z,11.05
2023-05-03T01:55:06.450Z,11.23
2023-05-03T01:57:33.310Z,11.15
2023-05-03T02:00:00.373Z,11.32
2023-05-03T02:02:27.371Z,11.38
2023-05-03T02:04:54.593Z,15.88
2023-05-03T02:07:21.765Z,10.82
2023-05-03T02:09:48.865Z,11.13
2023-05-03T02:12:17.339Z,8.25
2023-05-03T02:14:44.267Z,10.25
2023-05-03T02:17:11.632Z,13.77
2023-05-03T02:19:38.566Z,9.68
2023-05-03T02:22:06.920Z,20.40
2023-05-03T02:24:36.453Z,11.13
2023-05-03T02:27:07.000Z,12.35
2023-05-03T02:29:34.122Z,10.35
2023-05-03T02:32:05.580Z,11.02
2023-05-03T02:34:33.080Z,10.27
2023-05-03T02:37:00.308Z,10.32
2023-05-03T02:39:27.612Z,9.02
2023-05-03T02:41:54.880Z,7.80
2023-05-03T02:44:21.804Z,10.18
2023-05-03T02:46:50.305Z,11.82
2023-05-03T02:49:17.778Z,9.23
2023-05-03T02:51:44.762Z,11.10
2023-05-03T02:54:11.923Z,10.23
2023-05-03T02:56:39.356Z,9.70
2023-05-03T02:59:06.303Z,10.88
2023-05-03T03:01:34.113Z,11.32
2023-05-03T03:04:01.593Z,13.40
2023-05-03T03:06:31.435Z,8.45
2023-05-03T03:08:59.378Z,10.23
2023-05-03T03:11:26.889Z,7.97
2023-05-03T03:13:53.834Z,12.23
2023-05-03T03:16:25.889Z,10.30
2023-05-03T03:18:53.167Z,9.27
2023-05-03T03:21:20.028Z,9.13
2023-05-03T03:23:46.863Z,8.35
2023-05-03T03:26:13.753Z,7.80
2023-05-03T03:28:41.048Z,9.80
2023-05-03T03:31:11.006Z,9.40
2023-05-03T03:33:39.087Z,12.25
2023-05-03T03:36:19.859Z,7.85
2023-05-03T03:38:49.348Z,9.32
2023-05-03T03:41:16.157Z,11.07
2023-05-03T03:43:44.260Z,11.63
2023-05-03T03:46:17.031Z,12.15
2023-05-03T03:48:44.480Z,13.75
2023-05-03T03:51:11.677Z,12.05
2023-05-03T03:53:44.360Z,9.93
2023-05-03T03:56:11.878Z,12.35
2023-05-03T03:58:38.924Z,10.73
2023-05-03T04:01:08.190Z,9.75
2023-05-03T04:03:35.193Z,19.83
2023-05-03T04:06:02.298Z,11.27
2023-05-03T04:08:29.686Z,11.93
2023-05-03T04:10:56.938Z,9.05
2023-05-03T04:13:24.981Z,9.05
2023-05-03T04:15:56.325Z,10.93
2023-05-03T04:18:23.954Z,10.80
2023-05-03T04:20:52.628Z,11.77
2023-05-03T04:23:20.951Z,11.00
2023-05-03T04:25:48.958Z,11.00
2023-05-03T04:28:18.249Z,11.27
2023-05-03T04:30:48.423Z,10.55
2023-05-03T04:33:22.200Z,15.43
2023-05-03T04:35:51.310Z,10.50
2023-05-03T04:38:20.115Z,12.95
2023-05-03T04:40:47.302Z,14.07
2023-05-03T04:43:14.250Z,14.88
2023-05-03T04:45:44.851Z,20.42
2023-05-03T04:48:18.183Z,14.88
2023-05-03T04:50:45.532Z,12.10
2023-05-03T04:53:14.858Z,16.27
2023-05-03T04:55:45.033Z,14.85
2023-05-03T04:58:11.887Z,10.73
2023-05-03T05:00:41.842Z,14.30
2023-05-03T05:03:15.146Z,9.50
2023-05-03T05:05:42.121Z,15.48
2023-05-03T05:08:11.233Z,12.48
2023-05-03T05:10:43.483Z,12.18
2023-05-03T05:13:14.721Z,10.45
2023-05-03T05:15:41.940Z,11.85
2023-05-03T05:18:10.030Z,10.82
2023-05-03T05:20:38.545Z,11.43
2023-05-03T05:23:06.971Z,14.02
2023-05-03T05:25:33.902Z,10.38
2023-05-03T05:28:02.575Z,13.43
2023-05-03T05:30:30.360Z,10.10
2023-05-03T05:32:57.539Z,12.10
2023-05-03T05:35:24.491Z,16.40
2023-05-03T05:37:51.588Z,17.63
2023-05-03T05:40:19.245Z,13.45
2023-05-03T05:42:51.471Z,13.65
2023-05-03T05:45:20.025Z,15.13
2023-05-03T05:47:47.327Z,18.67
2023-05-03T05:50:18.331Z,15.65
2023-05-03T05:52:51.663Z,15.52
2023-05-03T05:55:19.218Z,16.05
2023-05-03T05:57:46.447Z,18.27
2023-05-03T06:00:17.527Z,17.77
2023-05-03T06:02:45.441Z,17.38
2023-05-03T06:05:16.955Z,20.45
2023-05-03T06:07:44.025Z,17.65
2023-05-03T06:10:11.243Z,23.25
2023-05-03T06:12:40.373Z,21.25
2023-05-03T06:15:13.386Z,27.25
2023-05-03T06:17:40.645Z,24.23
2023-05-03T06:20:12.097Z,33.30
2023-05-03T06:22:40.824Z,25.55
2023-05-03T06:25:09.793Z,25.90
2023-05-03T06:27:38.475Z,26.23
2023-05-03T06:30:07.533Z,24.50
2023-05-03T06:32:35.260Z,25.65
2023-05-03T06:35:02.390Z,34.65
2023-05-03T06:37:30.159Z,32.85
2023-05-03T06:39:57.318Z,36.63
2023-05-03T06:42:24.220Z,30.45
2023-05-03T06:45:03.955Z,27.30
2023-05-03T06:47:31.161Z,26.90
2023-05-03T06:49:58.639Z,26.50
2023-05-03T06:52:25.598Z,31.40
2023-05-03T06:54:53.625Z,26.58
2023-05-03T06:57:21.665Z,31.20
2023-05-03T06:59:48.715Z,23.92
2023-05-03T07:02:16.436Z,23.75
2023-05-03T07:04:43.322Z,24.48
2023-05-03T07:07:10.300Z,30.48
2023-05-03T07:09:43.273Z,30.88
2023-05-03T07:12:11.719Z,29.98
2023-05-03T07:14:41.572Z,33.38
2023-05-03T07:17:09.178Z,33.33
2023-05-03T07:19:37.704Z,31.10
2023-05-03T07:22:05.399Z,32.65
2023-05-03T07:24:32.628Z,33.95
2023-05-03T07:26:59.620Z,30.25
2023-05-03T07:29:27.472Z,32.00
2023-05-03T07:31:54.775Z,33.03
2023-05-03T07:34:22.469Z,26.33
2023-05-03T07:36:49.790Z,26.95
2023-05-03T07:39:17.611Z,28.60
2023-05-03T07:41:44.588Z,32.40
2023-05-03T07:44:11.873Z,24.75
2023-05-03T07:46:39.338Z,27.30
2023-05-03T07:49:06.404Z,26.63
2023-05-03T07:51:37.078Z,30.02
2023-05-03T07:54:04.366Z,29.42
2023-05-03T07:56:31.529Z,28.88
2023-05-03T07:59:08.470Z,27.05
2023-05-03T08:01:36.878Z,30.10
2023-05-03T08:04:04.658Z,30.20
2023-05-03T08:06:32.743Z,29.73
2023-05-03T08:08:59.739Z,25.38
2023-05-03T08:11:29.726Z,43.38
2023-05-03T08:13:56.801Z,25.63
2023-05-03T08:16:24.415Z,33.25
2023-05-03T08:18:51.782Z,31.30
2023-05-03T08:21:19.508Z,25.25
2023-05-03T08:23:46.482Z,27.15
2023-05-03T08:26:14.719Z,30.45
2023-05-03T08:28:42.415Z,24.77
2023-05-03T08:31:09.734Z,28.55
2023-05-03T08:33:37.316Z,32.67
2023-05-03T08:36:04.406Z,25.88
2023-05-03T08:38:31.463Z,20.70
2023-05-03T08:40:59.032Z,18.92
2023-05-03T08:43:27.852Z,20.92
2023-05-03T08:45:55.404Z,21.02
2023-05-03T08:48:24.308Z,18.02
2023-05-03T08:50:51.833Z,26.23
2023-05-03T08:53:19.155Z,18.42
2023-05-03T08:55:46.758Z,22.33
2023-05-03T08:58:14.512Z,27.58
2023-05-03T09:00:45.478Z,19.33
2023-05-03T09:03:13.260Z,21.85
2023-05-03T09:05:41.527Z,20.60
2023-05-03T09:08:10.020Z,21.23
2023-05-03T09:10:41.886Z,20.20
2023-05-03T09:13:09.753Z,19.88
2023-05-03T09:15:37.474Z,16.63
2023-05-03T09:18:30.701Z,21.15
2023-05-03T09:21:03.622Z,17.50
2023-05-03T09:23:32.229Z,19.30
2023-05-03T09:26:00.246Z,18.13
2023-05-03T09:28:27.594Z,15.50
2023-05-03T09:31:08.027Z,19.60
2023-05-03T09:33:36.302Z,17.63
2023-05-03T09:36:05.870Z,16.10
2023-05-03T09:38:35.147Z,15.85
2023-05-03T09:41:03.690Z,15.00
2023-05-03T09:43:32.330Z,18.58
2023-05-03T09:46:12.329Z,13.57
2023-05-03T09:48:48.181Z,16.63
2023-05-03T09:51:19.950Z,18.70
2023-05-03T09:53:48.817Z,17.70
2023-05-03T09:56:16.468Z,20.05
2023-05-03T09:58:46.994Z,16.83
2023-05-03T10:01:15.235Z,18.65
2023-05-03T10:03:51.100Z,17.25
2023-05-03T10:06:30.184Z,17.13
2023-05-03T10:09:29.149Z,17.75
2023-05-03T10:11:59.398Z,17.25
2023-05-03T10:14:27.079Z,20.02
2023-05-03T10:17:01.271Z,19.30
2023-05-03T10:19:37.595Z,23.50
2023-05-03T10:22:08.765Z,19.63
2023-05-03T10:24:37.051Z,18.20
2023-05-03T10:27:07.685Z,19.95
2023-05-03T10:29:34.602Z,18.75
2023-05-03T10:32:02.380Z,18.33
2023-05-03T10:34:33.647Z,22.30
2023-05-03T10:37:08.213Z,19.02
2023-05-03T10:39:35.367Z,18.50
2023-05-03T10:42:04.173Z,15.82
2023-05-03T10:44:50.140Z,20.00
2023-05-03T10:47:18.185Z,15.60
2023-05-03T10:49:46.212Z,15.13
2023-05-03T10:52:36.218Z,16.98
2023-05-03T10:55:04.704Z,17.02
2023-05-03T10:57:33.300Z,16.20
2023-05-03T11:00:03.031Z,16.98
2023-05-03T11:02:32.743Z,17.25
2023-05-03T11:05:01.883Z,16.15
2023-05-03T11:07:30.105Z,15.00
2023-05-03T11:09:57.275Z,20.40
2023-05-03T11:12:24.370Z,17.58
2023-05-03T11:14:51.492Z,15.48
2023-05-03T11:17:18.946Z,19.60
2023-05-03T11:19:46.921Z,15.50
2023-05-03T11:22:14.673Z,15.77
2023-05-03T11:24:42.649Z,13.50
2023-05-03T11:27:14.214Z,19.80
2023-05-03T11:29:41.934Z,14.27
2023-05-03T11:32:10.555Z,13.68
2023-05-03T11:34:38.769Z,15.43
2023-05-03T11:37:07.844Z,12.75
2023-05-03T11:39:36.299Z,15.45
2023-05-03T11:42:04.732Z,12.43
2023-05-03T11:44:31.725Z,16.90
2023-05-03T11:46:59.746Z,14.75
2023-05-03T11:49:27.507Z,14.40
2023-05-03T11:51:55.149Z,13.45
2023-05-03T11:54:26.385Z,12.40
2023-05-03T11:56:59.164Z,12.18
2023-05-03T11:59:37.697Z,11.85
2023-05-03T12:02:05.619Z,14.60
2023-05-03T12:04:34.351Z,16.17
2023-05-03T12:07:04.666Z,13.00
2023-05-03T12:09:33.148Z,13.40
2023-05-03T12:12:02.521Z,11.10
2023-05-03T12:14:50.696Z,11.73
2023-05-03T12:17:38.466Z,13.95
2023-05-03T12:22:57.914Z,16.40
2023-05-03T12:25:28.055Z,15.57
2023-05-03T12:28:18.005Z,10.68
2023-05-03T12:30:46.757Z,11.45
2023-05-03T12:33:17.064Z,10.13
2023-05-03T12:35:48.129Z,11.15
2023-05-03T12:38:18.086Z,9.23
2023-05-03T12:40:48.007Z,10.40
2023-05-03T12:43:16.918Z,11.20
2023-05-03T12:45:51.137Z,11.82
2023-05-03T12:48:26.116Z,10.48
2023-05-03T12:51:13.702Z,11.30
2023-05-03T12:53:47.192Z,9.60
2023-05-03T12:56:17.206Z,9.85
2023-05-03T12:59:11.398Z,9.90
2023-05-03T13:02:17.017Z,9.50
2023-05-03T13:04:56.092Z,6.97
2023-05-03T13:07:26.152Z,8.70
2023-05-03T13:12:27.893Z,12.70
2023-05-03T13:14:57.037Z,7.00
2023-05-03T13:17:25.530Z,8.05
2023-05-03T13:19:54.846Z,7.38
2023-05-03T13:22:24.468Z,8.32
2023-05-03T13:24:54.242Z,7.28
2023-05-03T13:27:29.516Z,9.52
2023-05-03T13:29:59.015Z,4.60
2023-05-03T13:32:28.945Z,8.23
2023-05-03T13:34:57.566Z,7.78
2023-05-03T13:37:27.291Z,6.50
2023-05-03T13:39:57.815Z,6.13
2023-05-03T13:42:28.613Z,4.40
2023-05-03T13:44:55.719Z,5.05
2023-05-03T13:47:23.219Z,7.07
2023-05-03T13:49:50.089Z,5.55
2023-05-03T13:52:17.046Z,5.55
2023-05-03T13:54:44.466Z,7.15
2023-05-03T13:57:11.425Z,6.25
2023-05-03T13:59:38.394Z,4.95
2023-05-03T14:02:05.348Z,8.23
2023-05-03T14:04:32.329Z,7.53
2023-05-03T14:07:02.756Z,5.38
2023-05-03T14:09:30.462Z,5.07
2023-05-03T14:11:57.882Z,9.35
2023-05-03T14:14:27.275Z,4.03
2023-05-03T14:16:54.251Z,4.22
2023-05-03T14:19:21.730Z,4.50
2023-05-03T14:21:51.318Z,3.95
2023-05-03T14:24:18.820Z,5.28
2023-05-03T14:26:46.386Z,4.45
2023-05-03T14:29:13.338Z,4.05
2023-05-03T14:31:40.577Z,5.03
2023-05-03T14:34:09.890Z,3.75
2023-05-03T14:36:44.235Z,4.35
2023-05-03T14:39:17.600Z,3.53
2023-05-03T14:41:48.631Z,3.75
2023-05-03T14:44:15.690Z,5.53
2023-05-03T14:46:42.594Z,4.68
2023-05-03T14:49:09.528Z,6.68
2023-05-03T14:51:37.137Z,4.35
2023-05-03T14:54:04.123Z,3.40
2023-05-03T14:56:32.366Z,5.38
2023-05-03T14:58:59.518Z,5.82
2023-05-03T15:01:26.959Z,6.07
2023-05-03T15:03:54.016Z,6.22
2023-05-03T15:06:25.884Z,8.15
2023-05-03T15:08:53.044Z,5.00
2023-05-03T15:11:19.894Z,7.38
2023-05-03T15:13:47.862Z,3.30
2023-05-03T15:16:14.840Z,4.55
2023-05-03T15:18:44.003Z,3.63
2023-05-03T15:21:12.778Z,7.80
2023-05-03T15:23:39.692Z,4.40
2023-05-03T15:26:06.541Z,8.65
2023-05-03T15:28:33.769Z,4.22
2023-05-03T15:31:01.800Z,8.88
2023-05-03T15:33:28.696Z,10.40
2023-05-03T15:35:55.859Z,6.15
2023-05-03T15:38:22.799Z,4.25
2023-05-03T15:40:49.816Z,4.15
2023-05-03T15:43:17.836Z,4.70
2023-05-03T15:45:45.141Z,5.80
2023-05-03T15:48:12.049Z,6.93
2023-05-03T15:50:38.944Z,3.28
2023-05-03T15:53:06.219Z,11.60
2023-05-03T15:55:33.414Z,4.60
2023-05-03T15:58:00.295Z,4.72
2023-05-03T16:00:27.787Z,5.43
2023-05-03T16:02:54.651Z,11.13
2023-05-03T16:05:23.216Z,4.43
2023-05-03T16:07:50.910Z,4.55
2023-05-03T16:10:25.686Z,5.72
2023-05-03T16:13:02.453Z,5.85
2023-05-03T16:15:39.622Z,6.43
2023-05-03T16:18:10.119Z,11.75
2023-05-03T16:20:37.857Z,4.72
2023-05-03T16:23:05.041Z,7.05
2023-05-03T16:25:31.965Z,7.65
2023-05-03T16:27:58.870Z,6.43
2023-05-03T16:30:26.113Z,10.02
2023-05-03T16:32:53.647Z,4.75
2023-05-03T16:35:20.596Z,4.57
2023-05-03T16:37:47.512Z,4.60
2023-05-03T16:40:14.489Z,3.53
2023-05-03T16:42:42.542Z,7.78
2023-05-03T16:45:10.900Z,9.10
2023-05-03T16:47:38.286Z,8.23
2023-05-03T16:50:08.876Z,4.47
2023-05-03T16:52:42.977Z,6.00
2023-05-03T16:55:10.916Z,4.90
2023-05-03T16:57:38.616Z,2.75
2023-05-03T17:00:11.133Z,7.55
2023-05-03T17:02:39.790Z,4.97
2023-05-03T17:05:08.239Z,4.40
2023-05-03T17:07:35.734Z,4.95
2023-05-03T17:10:03.744Z,4.70
2023-05-03T17:12:31.157Z,7.05
2023-05-03T17:14:58.619Z,8.20
2023-05-03T17:17:25.581Z,4.63
2023-05-03T17:19:52.630Z,6.10
2023-05-03T17:22:19.552Z,3.80
2023-05-03T17:24:46.465Z,2.10
2023-05-03T17:27:13.390Z,5.03
2023-05-03T17:29:40.431Z,3.75
2023-05-03T17:32:07.351Z,7.78
2023-05-03T17:34:34.207Z,3.78
2023-05-03T17:37:01.054Z,5.10
2023-05-03T17:39:28.511Z,4.00
2023-05-03T17:41:55.451Z,5.88
2023-05-03T17:44:22.970Z,6.28
2023-05-03T17:46:50.354Z,3.63
2023-05-03T17:49:17.322Z,3.22
2023-05-03T17:51:44.210Z,3.35
2023-05-03T17:54:11.096Z,4.35
2023-05-03T17:56:37.957Z,7.65
2023-05-03T17:59:05.261Z,5.20
2023-05-03T18:01:32.109Z,5.30
2023-05-03T18:03:59.143Z,4.88
2023-05-03T18:06:28.039Z,3.55
2023-05-03T18:08:54.857Z,6.13
2023-05-03T18:11:22.926Z,4.60
2023-05-03T18:13:50.177Z,3.15
2023-05-03T18:16:18.966Z,5.13
2023-05-03T18:18:45.826Z,4.40
2023-05-03T18:21:13.357Z,3.65
2023-05-03T18:23:41.442Z,5.18
2023-05-03T18:26:10.023Z,3.90
2023-05-03T18:28:37.770Z,3.58
2023-05-03T18:31:04.692Z,4.68
2023-05-03T18:33:32.801Z,7.90
2023-05-03T18:35:59.679Z,3.28
2023-05-03T18:38:26.988Z,2.58
2023-05-03T18:40:58.708Z,4.72
2023-05-03T18:43:25.733Z,2.22
2023-05-03T18:45:52.651Z,7.15
2023-05-03T18:48:19.566Z,7.43
2023-05-03T18:50:46.620Z,3.97
2023-05-03T18:53:14.668Z,5.95
2023-05-03T18:55:42.495Z,4.03
2023-05-03T18:58:09.457Z,7.93
2023-05-03T19:00:36.472Z,15.93
2023-05-03T19:03:04.212Z,3.08
2023-05-03T19:05:31.218Z,4.07
2023-05-03T19:08:09.005Z,4.18
2023-05-03T19:10:45.194Z,5.90
2023-05-03T19:13:14.610Z,2.67
2023-05-03T19:15:44.402Z,3.83
2023-05-03T19:18:26.177Z,2.78
2023-05-03T19:20:58.670Z,2.92
2023-05-03T19:23:27.824Z,3.30
2023-05-03T19:25:57.029Z,7.00
2023-05-03T19:28:28.767Z,2.95
2023-05-03T19:30:56.219Z,5.53
2023-05-03T19:33:23.255Z,2.58
2023-05-03T19:35:50.240Z,5.10
2023-05-03T19:38:18.541Z,6.20
2023-05-03T19:40:58.358Z,4.68
2023-05-03T19:43:25.463Z,3.78
2023-05-03T19:45:53.155Z,7.10
2023-05-03T19:48:22.555Z,6.55
2023-05-03T19:50:51.720Z,10.48
2023-05-03T19:53:29.263Z,6.68
2023-05-03T19:56:01.112Z,4.28
2023-05-03T19:58:29.040Z,4.45
2023-05-03T20:00:58.000Z,4.70
2023-05-03T20:03:26.364Z,11.20
2023-05-03T20:05:53.856Z,5.75
2023-05-03T20:08:22.257Z,4.10
2023-05-03T20:10:50.841Z,2.67
2023-05-03T20:13:19.203Z,3.95
2023-05-03T20:15:48.308Z,6.38
2023-05-03T20:18:16.625Z,4.90
2023-05-03T20:20:43.570Z,4.25
2023-05-03T20:23:11.986Z,4.10
2023-05-03T20:25:40.214Z,5.03
2023-05-03T20:28:09.354Z,5.70
2023-05-03T20:30:37.871Z,4.60
2023-05-03T20:33:04.975Z,8.75
2023-05-03T20:35:33.073Z,3.38
2023-05-03T20:38:00.245Z,10.23
2023-05-03T20:40:27.151Z,6.88
2023-05-03T20:42:53.995Z,6.20
2023-05-03T20:45:20.973Z,3.55
2023-05-03T20:47:47.887Z,5.10
2023-05-03T20:50:14.935Z,9.18
2023-05-03T20:52:41.812Z,6.50
2023-05-03T20:55:09.770Z,6.53
2023-05-03T20:57:42.924Z,9.00
2023-05-03T21:00:15.913Z,10.60
2023-05-03T21:02:43.346Z,8.55
2023-05-03T21:05:10.729Z,3.83
2023-05-03T21:07:38.434Z,5.93
2023-05-03T21:10:07.037Z,8.07
2023-05-03T21:12:34.818Z,8.00
2023-05-03T21:15:01.763Z,6.43
2023-05-03T21:17:28.691Z,3.80
2023-05-03T21:19:55.825Z,7.00
2023-05-03T21:22:22.775Z,5.65
2023-05-03T21:24:50.155Z,10.07
2023-05-03T21:27:19.185Z,4.72
2023-05-03T21:29:46.354Z,7.30
2023-05-03T21:32:13.346Z,6.35
2023-05-03T21:34:40.248Z,4.53
2023-05-03T21:37:07.314Z,7.50
2023-05-03T21:39:34.184Z,4.15
2023-05-03T21:42:01.050Z,7.35
2023-05-03T21:44:28.020Z,5.72
2023-05-03T21:46:55.008Z,6.63
2023-05-03T21:49:22.265Z,5.75
2023-05-03T21:51:49.191Z,11.20
2023-05-03T21:54:17.174Z,6.88
2023-05-03T21:56:44.077Z,6.63
2023-05-03T21:59:10.969Z,7.72
2023-05-03T22:01:38.072Z,4.80
2023-05-03T22:04:05.670Z,4.65
2023-05-03T22:06:32.772Z,7.47
2023-05-03T22:08:59.812Z,4.32
2023-05-03T22:11:26.705Z,10.38
2023-05-03T22:14:06.880Z,8.65
2023-05-03T22:16:35.357Z,6.88
2023-05-03T22:19:02.260Z,7.45
2023-05-03T22:21:29.315Z,9.75
2023-05-03T22:23:56.207Z,9.57
2023-05-03T22:26:24.294Z,8.57
2023-05-03T22:28:51.205Z,8.73
2023-05-03T22:31:18.246Z,5.82
2023-05-03T22:33:45.513Z,4.18
2023-05-03T22:36:12.955Z,5.40
2023-05-03T22:38:42.561Z,8.85
2023-05-03T22:41:09.837Z,9.93
2023-05-03T22:43:37.072Z,4.45
2023-05-03T22:46:04.181Z,5.28
2023-05-03T22:48:32.592Z,4.82
2023-05-03T22:50:59.886Z,5.53
2023-05-03T22:53:26.814Z,4.43
2023-05-03T22:56:06.608Z,5.97
2023-05-03T22:58:34.439Z,4.63
2023-05-03T23:01:01.468Z,9.73
2023-05-03T23:03:28.393Z,7.18
2023-05-03T23:05:55.542Z,9.68
2023-05-03T23:08:22.473Z,5.25
2023-05-03T23:10:49.349Z,8.55
2023-05-03T23:13:16.922Z,6.30
2023-05-03T23:15:44.053Z,5.38
2023-05-03T23:18:10.924Z,5.03
2023-05-03T23:20:37.859Z,8.35
2023-05-03T23:23:04.745Z,6.32
2023-05-03T23:25:31.612Z,7.30
2023-05-03T23:27:58.607Z,8.15
2023-05-03T23:30:25.989Z,9.00
2023-05-03T23:32:53.483Z,11.00
2023-05-03T23:35:21.043Z,7.93
2023-05-03T23:37:47.967Z,9.27
2023-05-03T23:40:14.896Z,6.53
2023-05-03T23:42:41.763Z,5.97
2023-05-03T23:45:09.808Z,6.53
2023-05-03T23:47:36.941Z,9.27
2023-05-03T23:50:04.731Z,7.05
2023-05-03T23:52:31.924Z,5.75
2023-05-03T23:54:58.817Z,6.57
2023-05-03T23:57:26.157Z,8.00
2023-05-03T23:59:53.111Z,8.52
